sensor_id;sensor_type;location;lat;lon;timestamp;temperature;humidity
16578;DHT22;8401;52.528;13.340;2023-01-10T00:01:20;7.60;99.90
16578;DHT22;8401;52.528;13.340;2023-01-10T00:03:46;7.50;99.90
16578;DHT22;8401;52.528;13.340;2023-01-10T00:06:12;7.50;99.90
16578;DHT22;8401;52.528;13.340;2023-01-10T00:08:38;7.50;99.90
16578;DHT22;8401;52.528;13.340;2023-01-10T00:11:04;7.50;99.90
16578;DHT22;8401;52.528;13.340;2023-01-10T00:13:52;7.50;99.90
16578;DHT22;8401;52.528;13.340;2023-01-10T00:16:18;7.50;99.90
16578;DHT22;8401;52.528;13.340;2023-01-10T00:18:44;7.50;99.90
16578;DHT22;8401;52.528;13.340;2023-01-10T00:21:09;7.40;99.90
16578;DHT22;8401;52.528;13.340;2023-01-10T00:23:35;7.40;99.90
16578;DHT22;8401;52.528;13.340;2023-01-10T00:26:00;7.40;99.90
16578;DHT22;8401;52.528;13.340;2023-01-10T00:28:26;7.50;99.90
16578;DHT22;8401;52.528;13.340;2023-01-10T00:30:53;7.50;99.90
16578;DHT22;8401;52.528;13.340;2023-01-10T00:33:20;7.40;99.90
16578;DHT22;8401;52.528;13.340;2023-01-10T00:35:46;7.40;99.90
16578;DHT22;8401;52.528;13.340;2023-01-10T00:38:12;7.40;99.90
16578;DHT22;8401;52.528;13.340;2023-01-10T00:40:39;7.40;99.90
16578;DHT22;8401;52.528;13.340;2023-01-10T00:43:05;7.30;99.90
16578;DHT22;8401;52.528;13.340;2023-01-10T00:45:49;7.40;99.90
16578;DHT22;8401;52.528;13.340;2023-01-10T00:48:15;7.30;99.90
16578;DHT22;8401;52.528;13.340;2023-01-10T00:50:41;7.30;99.90
16578;DHT22;8401;52.528;13.340;2023-01-10T00:53:07;7.30;99.90
16578;DHT22;8401;52.528;13.340;2023-01-10T00:55:34;7.30;99.90
16578;DHT22;8401;52.528;13.340;2023-01-10T00:58:00;7.30;99.90
16578;DHT22;8401;52.528;13.340;2023-01-10T01:00:25;7.20;99.90
16578;DHT22;8401;52.528;13.340;2023-01-10T01:02:51;7.30;99.90
16578;DHT22;8401;52.528;13.340;2023-01-10T01:05:18;7.20;99.90
16578;DHT22;8401;52.528;13.340;2023-01-10T01:07:46;7.20;99.90
16578;DHT22;8401;52.528;13.340;2023-01-10T01:10:12;7.20;99.90
16578;DHT22;8401;52.528;13.340;2023-01-10T01:12:58;7.20;99.90
16578;DHT22;8401;52.528;13.340;2023-01-10T01:15:25;7.20;99.90
16578;DHT22;8401;52.528;13.340;2023-01-10T01:17:51;7.20;99.90
16578;DHT22;8401;52.528;13.340;2023-01-10T01:20:17;7.20;99.90
16578;DHT22;8401;52.528;13.340;2023-01-10T01:22:43;7.20;99.90
16578;DHT22;8401;52.528;13.340;2023-01-10T01:25:08;7.20;99.90
16578;DHT22;8401;52.528;13.340;2023-01-10T01:27:34;7.20;99.90
16578;DHT22;8401;52.528;13.340;2023-01-10T01:30:05;7.10;99.90
16578;DHT22;8401;52.528;13.340;2023-01-10T01:32:31;7.10;99.90
16578;DHT22;8401;52.528;13.340;2023-01-10T01:34:57;7.10;99.90
16578;DHT22;8401;52.528;13.340;2023-01-10T01:37:22;7.10;99.90
16578;DHT22;8401;52.528;13.340;2023-01-10T01:39:48;7.10;99.90
16578;DHT22;8401;52.528;13.340;2023-01-10T01:42:43;7.00;99.90
16578;DHT22;8401;52.528;13.340;2023-01-10T01:45:19;6.90;99.90
16578;DHT22;8401;52.528;13.340;2023-01-10T01:47:55;6.90;99.90
16578;DHT22;8401;52.528;13.340;2023-01-10T01:50:32;6.90;99.90
16578;DHT22;8401;52.528;13.340;2023-01-10T01:53:02;6.90;99.90
16578;DHT22;8401;52.528;13.340;2023-01-10T01:55:31;6.90;99.90
16578;DHT22;8401;52.528;13.340;2023-01-10T01:58:01;7.00;99.90
16578;DHT22;8401;52.528;13.340;2023-01-10T02:00:29;6.90;99.90
16578;DHT22;8401;52.528;13.340;2023-01-10T02:02:58;6.90;99.90
16578;DHT22;8401;52.528;13.340;2023-01-10T02:05:25;6.90;99.90
16578;DHT22;8401;52.528;13.340;2023-01-10T02:07:54;6.80;99.90
16578;DHT22;8401;52.528;13.340;2023-01-10T02:10:22;6.80;99.90
16578;DHT22;8401;52.528;13.340;2023-01-10T02:12:52;6.70;99.90
16578;DHT22;8401;52.528;13.340;2023-01-10T02:15:19;6.80;99.90
16578;DHT22;8401;52.528;13.340;2023-01-10T02:17:49;6.70;99.90
16578;DHT22;8401;52.528;13.340;2023-01-10T02:20:17;6.70;99.90
16578;DHT22;8401;52.528;13.340;2023-01-10T02:28:49;6.70;99.90
16578;DHT22;8401;52.528;13.340;2023-01-10T02:43:11;6.80;99.90
16578;DHT22;8401;52.528;13.340;2023-01-10T02:45:49;6.80;99.90
16578;DHT22;8401;52.528;13.340;2023-01-10T02:48:16;6.80;99.90
16578;DHT22;8401;52.528;13.340;2023-01-10T02:53:21;6.70;99.90
16578;DHT22;8401;52.528;13.340;2023-01-10T03:07:36;6.80;99.90
16578;DHT22;8401;52.528;13.340;2023-01-10T03:10:40;6.70;99.90
16578;DHT22;8401;52.528;13.340;2023-01-10T03:13:14;6.70;99.90
16578;DHT22;8401;52.528;13.340;2023-01-10T03:15:41;6.70;99.90
16578;DHT22;8401;52.528;13.340;2023-01-10T03:18:13;6.70;99.90
16578;DHT22;8401;52.528;13.340;2023-01-10T03:20:43;6.70;99.90
16578;DHT22;8401;52.528;13.340;2023-01-10T03:23:11;6.70;99.90
16578;DHT22;8401;52.528;13.340;2023-01-10T03:25:39;6.70;99.90
16578;DHT22;8401;52.528;13.340;2023-01-10T03:28:09;6.70;99.90
16578;DHT22;8401;52.528;13.340;2023-01-10T03:30:45;6.70;99.90
16578;DHT22;8401;52.528;13.340;2023-01-10T03:33:17;6.70;99.90
16578;DHT22;8401;52.528;13.340;2023-01-10T03:46:55;6.80;99.90
16578;DHT22;8401;52.528;13.340;2023-01-10T03:49:22;6.80;99.90
16578;DHT22;8401;52.528;13.340;2023-01-10T03:51:49;6.80;99.90
16578;DHT22;8401;52.528;13.340;2023-01-10T03:54:16;6.80;99.90
16578;DHT22;8401;52.528;13.340;2023-01-10T03:56:46;6.80;99.90
16578;DHT22;8401;52.528;13.340;2023-01-10T03:59:12;6.80;99.90
16578;DHT22;8401;52.528;13.340;2023-01-10T04:01:37;6.80;99.90
16578;DHT22;8401;52.528;13.340;2023-01-10T04:04:03;6.80;99.90
16578;DHT22;8401;52.528;13.340;2023-01-10T04:06:29;6.70;99.90
16578;DHT22;8401;52.528;13.340;2023-01-10T04:08:55;6.70;99.90
16578;DHT22;8401;52.528;13.340;2023-01-10T04:11:21;6.70;99.90
16578;DHT22;8401;52.528;13.340;2023-01-10T04:13:46;6.70;99.90
16578;DHT22;8401;52.528;13.340;2023-01-10T04:16:13;6.70;99.90
16578;DHT22;8401;52.528;13.340;2023-01-10T04:18:38;6.70;99.90
16578;DHT22;8401;52.528;13.340;2023-01-10T04:21:04;6.80;99.90
16578;DHT22;8401;52.528;13.340;2023-01-10T04:23:31;6.70;99.90
16578;DHT22;8401;52.528;13.340;2023-01-10T04:25:57;6.70;99.90
16578;DHT22;8401;52.528;13.340;2023-01-10T04:28:22;6.70;99.90
16578;DHT22;8401;52.528;13.340;2023-01-10T04:30:48;6.70;99.90
16578;DHT22;8401;52.528;13.340;2023-01-10T04:33:14;6.70;99.90
16578;DHT22;8401;52.528;13.340;2023-01-10T04:35:39;6.70;99.90
16578;DHT22;8401;52.528;13.340;2023-01-10T04:38:05;6.70;99.90
16578;DHT22;8401;52.528;13.340;2023-01-10T04:40:30;6.70;99.90
16578;DHT22;8401;52.528;13.340;2023-01-10T04:42:56;6.70;99.90
16578;DHT22;8401;52.528;13.340;2023-01-10T04:45:22;6.70;99.90
16578;DHT22;8401;52.528;13.340;2023-01-10T04:47:51;6.70;99.90
16578;DHT22;8401;52.528;13.340;2023-01-10T04:50:20;6.70;99.90
16578;DHT22;8401;52.528;13.340;2023-01-10T04:52:47;6.70;99.90
16578;DHT22;8401;52.528;13.340;2023-01-10T04:55:12;6.70;99.90
16578;DHT22;8401;52.528;13.340;2023-01-10T04:57:38;6.70;99.90
16578;DHT22;8401;52.528;13.340;2023-01-10T05:00:04;6.70;99.90
16578;DHT22;8401;52.528;13.340;2023-01-10T05:02:30;6.70;99.90
16578;DHT22;8401;52.528;13.340;2023-01-10T05:04:55;6.70;99.90
16578;DHT22;8401;52.528;13.340;2023-01-10T05:07:21;6.80;99.90
16578;DHT22;8401;52.528;13.340;2023-01-10T05:09:46;6.70;99.90
16578;DHT22;8401;52.528;13.340;2023-01-10T05:12:12;6.70;99.90
16578;DHT22;8401;52.528;13.340;2023-01-10T05:14:38;6.70;99.90
16578;DHT22;8401;52.528;13.340;2023-01-10T05:17:03;6.70;99.90
16578;DHT22;8401;52.528;13.340;2023-01-10T05:19:29;6.80;99.90
16578;DHT22;8401;52.528;13.340;2023-01-10T05:21:54;6.80;99.90
16578;DHT22;8401;52.528;13.340;2023-01-10T05:24:20;6.80;99.90
16578;DHT22;8401;52.528;13.340;2023-01-10T05:26:46;6.80;99.90
16578;DHT22;8401;52.528;13.340;2023-01-10T05:29:12;6.80;99.90
16578;DHT22;8401;52.528;13.340;2023-01-10T05:31:39;6.80;99.90
16578;DHT22;8401;52.528;13.340;2023-01-10T05:34:05;6.80;99.90
16578;DHT22;8401;52.528;13.340;2023-01-10T05:36:30;6.80;99.90
16578;DHT22;8401;52.528;13.340;2023-01-10T05:38:56;6.80;99.90
16578;DHT22;8401;52.528;13.340;2023-01-10T05:41:22;6.80;99.90
16578;DHT22;8401;52.528;13.340;2023-01-10T05:43:48;6.80;99.90
16578;DHT22;8401;52.528;13.340;2023-01-10T05:46:14;6.80;99.90
16578;DHT22;8401;52.528;13.340;2023-01-10T05:48:40;6.80;99.90
16578;DHT22;8401;52.528;13.340;2023-01-10T05:51:06;6.80;99.90
16578;DHT22;8401;52.528;13.340;2023-01-10T05:53:32;6.80;99.90
16578;DHT22;8401;52.528;13.340;2023-01-10T05:55:59;6.80;99.90
16578;DHT22;8401;52.528;13.340;2023-01-10T05:58:26;6.80;99.90
16578;DHT22;8401;52.528;13.340;2023-01-10T06:00:53;6.80;99.90
16578;DHT22;8401;52.528;13.340;2023-01-10T06:03:19;6.80;99.90
16578;DHT22;8401;52.528;13.340;2023-01-10T06:05:45;6.80;99.90
16578;DHT22;8401;52.528;13.340;2023-01-10T06:08:11;6.80;99.90
16578;DHT22;8401;52.528;13.340;2023-01-10T06:10:37;6.80;99.90
16578;DHT22;8401;52.528;13.340;2023-01-10T06:13:03;6.80;99.90
16578;DHT22;8401;52.528;13.340;2023-01-10T06:15:35;6.80;99.90
16578;DHT22;8401;52.528;13.340;2023-01-10T06:18:01;6.90;99.90
16578;DHT22;8401;52.528;13.340;2023-01-10T06:20:27;6.90;99.90
16578;DHT22;8401;52.528;13.340;2023-01-10T06:22:53;6.90;99.90
16578;DHT22;8401;52.528;13.340;2023-01-10T06:25:18;6.90;99.90
16578;DHT22;8401;52.528;13.340;2023-01-10T06:27:44;6.90;99.90
16578;DHT22;8401;52.528;13.340;2023-01-10T06:30:11;6.90;99.90
16578;DHT22;8401;52.528;13.340;2023-01-10T06:32:38;6.90;99.90
16578;DHT22;8401;52.528;13.340;2023-01-10T06:35:05;6.90;99.90
16578;DHT22;8401;52.528;13.340;2023-01-10T06:37:31;6.90;99.90
16578;DHT22;8401;52.528;13.340;2023-01-10T06:39:57;6.90;99.90
16578;DHT22;8401;52.528;13.340;2023-01-10T06:42:22;6.90;99.90
16578;DHT22;8401;52.528;13.340;2023-01-10T06:44:48;6.90;99.90
16578;DHT22;8401;52.528;13.340;2023-01-10T06:47:14;6.90;99.90
16578;DHT22;8401;52.528;13.340;2023-01-10T06:49:39;6.90;99.90
16578;DHT22;8401;52.528;13.340;2023-01-10T06:52:05;7.00;99.90
16578;DHT22;8401;52.528;13.340;2023-01-10T06:54:30;7.00;99.90
16578;DHT22;8401;52.528;13.340;2023-01-10T06:56:56;7.10;99.90
16578;DHT22;8401;52.528;13.340;2023-01-10T06:59:22;7.30;99.90
16578;DHT22;8401;52.528;13.340;2023-01-10T07:01:47;7.40;99.90
16578;DHT22;8401;52.528;13.340;2023-01-10T07:04:13;7.30;99.90
16578;DHT22;8401;52.528;13.340;2023-01-10T07:06:39;7.40;99.90
16578;DHT22;8401;52.528;13.340;2023-01-10T07:09:06;7.20;99.90
16578;DHT22;8401;52.528;13.340;2023-01-10T07:11:33;7.00;99.90
16578;DHT22;8401;52.528;13.340;2023-01-10T07:14:00;6.90;99.90
16578;DHT22;8401;52.528;13.340;2023-01-10T07:16:25;6.90;99.90
16578;DHT22;8401;52.528;13.340;2023-01-10T07:18:51;6.90;99.90
16578;DHT22;8401;52.528;13.340;2023-01-10T07:21:17;6.80;99.90
16578;DHT22;8401;52.528;13.340;2023-01-10T07:23:47;6.80;99.90
16578;DHT22;8401;52.528;13.340;2023-01-10T07:26:14;6.80;99.90
16578;DHT22;8401;52.528;13.340;2023-01-10T07:28:43;6.80;99.90
16578;DHT22;8401;52.528;13.340;2023-01-10T07:31:09;6.70;99.90
16578;DHT22;8401;52.528;13.340;2023-01-10T07:33:36;6.70;99.90
16578;DHT22;8401;52.528;13.340;2023-01-10T07:36:02;6.70;99.90
16578;DHT22;8401;52.528;13.340;2023-01-10T07:38:28;6.70;99.90
16578;DHT22;8401;52.528;13.340;2023-01-10T07:40:54;6.60;99.90
16578;DHT22;8401;52.528;13.340;2023-01-10T07:43:20;6.70;99.90
16578;DHT22;8401;52.528;13.340;2023-01-10T07:45:45;6.70;99.90
16578;DHT22;8401;52.528;13.340;2023-01-10T07:48:11;6.70;99.90
16578;DHT22;8401;52.528;13.340;2023-01-10T07:50:37;6.70;99.90
16578;DHT22;8401;52.528;13.340;2023-01-10T07:53:04;6.70;99.90
16578;DHT22;8401;52.528;13.340;2023-01-10T07:55:30;6.70;99.90
16578;DHT22;8401;52.528;13.340;2023-01-10T07:57:59;6.60;99.90
16578;DHT22;8401;52.528;13.340;2023-01-10T08:00:25;6.70;99.90
16578;DHT22;8401;52.528;13.340;2023-01-10T08:02:55;6.60;99.90
16578;DHT22;8401;52.528;13.340;2023-01-10T08:05:22;6.70;99.90
16578;DHT22;8401;52.528;13.340;2023-01-10T08:07:48;6.70;99.90
16578;DHT22;8401;52.528;13.340;2023-01-10T08:10:14;6.70;99.90
16578;DHT22;8401;52.528;13.340;2023-01-10T08:12:39;6.80;99.90
16578;DHT22;8401;52.528;13.340;2023-01-10T08:15:05;6.80;99.90
16578;DHT22;8401;52.528;13.340;2023-01-10T08:17:32;6.80;99.90
16578;DHT22;8401;52.528;13.340;2023-01-10T08:19:58;6.90;99.90
16578;DHT22;8401;52.528;13.340;2023-01-10T08:22:24;6.80;99.90
16578;DHT22;8401;52.528;13.340;2023-01-10T08:24:49;6.90;99.90
16578;DHT22;8401;52.528;13.340;2023-01-10T08:27:15;6.90;99.90
16578;DHT22;8401;52.528;13.340;2023-01-10T08:29:41;6.90;99.90
16578;DHT22;8401;52.528;13.340;2023-01-10T08:32:07;7.00;99.90
16578;DHT22;8401;52.528;13.340;2023-01-10T08:34:32;7.00;99.90
16578;DHT22;8401;52.528;13.340;2023-01-10T08:36:58;7.00;99.90
16578;DHT22;8401;52.528;13.340;2023-01-10T08:39:24;7.00;99.90
16578;DHT22;8401;52.528;13.340;2023-01-10T08:41:52;6.90;99.90
16578;DHT22;8401;52.528;13.340;2023-01-10T08:44:18;7.00;99.90
16578;DHT22;8401;52.528;13.340;2023-01-10T08:46:44;7.00;99.90
16578;DHT22;8401;52.528;13.340;2023-01-10T08:49:10;7.00;99.90
16578;DHT22;8401;52.528;13.340;2023-01-10T08:51:36;6.90;99.90
16578;DHT22;8401;52.528;13.340;2023-01-10T08:54:03;6.90;99.90
16578;DHT22;8401;52.528;13.340;2023-01-10T08:56:29;6.90;99.90
16578;DHT22;8401;52.528;13.340;2023-01-10T08:58:54;7.00;99.90
16578;DHT22;8401;52.528;13.340;2023-01-10T09:01:20;7.20;99.90
16578;DHT22;8401;52.528;13.340;2023-01-10T09:03:46;7.20;99.90
16578;DHT22;8401;52.528;13.340;2023-01-10T09:06:11;7.20;99.90
16578;DHT22;8401;52.528;13.340;2023-01-10T09:08:37;7.30;99.90
16578;DHT22;8401;52.528;13.340;2023-01-10T09:11:04;7.30;99.90
16578;DHT22;8401;52.528;13.340;2023-01-10T09:13:30;7.40;99.90
16578;DHT22;8401;52.528;13.340;2023-01-10T09:15:57;7.50;99.90
16578;DHT22;8401;52.528;13.340;2023-01-10T09:18:23;7.50;99.90
16578;DHT22;8401;52.528;13.340;2023-01-10T09:20:49;7.50;99.90
16578;DHT22;8401;52.528;13.340;2023-01-10T09:23:17;7.50;99.90
16578;DHT22;8401;52.528;13.340;2023-01-10T09:25:49;7.40;99.90
16578;DHT22;8401;52.528;13.340;2023-01-10T09:28:16;7.40;99.90
16578;DHT22;8401;52.528;13.340;2023-01-10T09:30:43;7.40;99.90
16578;DHT22;8401;52.528;13.340;2023-01-10T09:33:09;7.50;99.90
16578;DHT22;8401;52.528;13.340;2023-01-10T09:35:37;7.50;99.90
16578;DHT22;8401;52.528;13.340;2023-01-10T09:38:04;7.70;99.90
16578;DHT22;8401;52.528;13.340;2023-01-10T09:52:52;7.40;99.90
16578;DHT22;8401;52.528;13.340;2023-01-10T09:57:45;7.40;99.90
16578;DHT22;8401;52.528;13.340;2023-01-10T10:00:23;7.40;99.90
16578;DHT22;8401;52.528;13.340;2023-01-10T10:02:52;7.60;99.90
16578;DHT22;8401;52.528;13.340;2023-01-10T10:05:21;7.70;99.90
16578;DHT22;8401;52.528;13.340;2023-01-10T10:08:00;7.90;99.90
16578;DHT22;8401;52.528;13.340;2023-01-10T10:10:40;7.90;99.90
16578;DHT22;8401;52.528;13.340;2023-01-10T10:16:25;7.80;99.90
16578;DHT22;8401;52.528;13.340;2023-01-10T10:18:59;7.90;99.90
16578;DHT22;8401;52.528;13.340;2023-01-10T10:24:17;7.80;99.90
16578;DHT22;8401;52.528;13.340;2023-01-10T10:26:57;7.60;99.90
16578;DHT22;8401;52.528;13.340;2023-01-10T10:34:43;7.50;99.90
16578;DHT22;8401;52.528;13.340;2023-01-10T10:37:36;7.50;99.90
16578;DHT22;8401;52.528;13.340;2023-01-10T10:40:10;7.60;99.90
16578;DHT22;8401;52.528;13.340;2023-01-10T10:42:45;7.70;99.90
16578;DHT22;8401;52.528;13.340;2023-01-10T10:48:26;7.60;99.90
16578;DHT22;8401;52.528;13.340;2023-01-10T10:53:27;7.50;99.90
16578;DHT22;8401;52.528;13.340;2023-01-10T10:55:54;7.50;99.90
16578;DHT22;8401;52.528;13.340;2023-01-10T10:58:20;7.60;99.90
16578;DHT22;8401;52.528;13.340;2023-01-10T11:00:46;7.70;99.90
16578;DHT22;8401;52.528;13.340;2023-01-10T11:03:23;7.80;99.90
16578;DHT22;8401;52.528;13.340;2023-01-10T11:05:49;7.80;99.90
16578;DHT22;8401;52.528;13.340;2023-01-10T11:08:17;7.80;99.90
16578;DHT22;8401;52.528;13.340;2023-01-10T11:10:55;7.90;99.90
16578;DHT22;8401;52.528;13.340;2023-01-10T11:16:26;8.00;99.90
16578;DHT22;8401;52.528;13.340;2023-01-10T11:19:23;8.20;99.90
16578;DHT22;8401;52.528;13.340;2023-01-10T11:21:55;8.30;99.90
16578;DHT22;8401;52.528;13.340;2023-01-10T11:24:48;8.30;99.90
16578;DHT22;8401;52.528;13.340;2023-01-10T11:27:17;8.20;99.90
16578;DHT22;8401;52.528;13.340;2023-01-10T11:29:59;8.30;99.90
16578;DHT22;8401;52.528;13.340;2023-01-10T11:32:47;8.30;99.90
16578;DHT22;8401;52.528;13.340;2023-01-10T11:35:27;8.30;99.90
16578;DHT22;8401;52.528;13.340;2023-01-10T11:40:32;8.30;99.90
16578;DHT22;8401;52.528;13.340;2023-01-10T11:42:59;8.30;99.90
16578;DHT22;8401;52.528;13.340;2023-01-10T11:45:53;8.50;99.90
16578;DHT22;8401;52.528;13.340;2023-01-10T11:48:24;8.50;99.90
16578;DHT22;8401;52.528;13.340;2023-01-10T11:50:53;8.60;99.90
16578;DHT22;8401;52.528;13.340;2023-01-10T11:55:57;8.60;99.90
16578;DHT22;8401;52.528;13.340;2023-01-10T11:58:22;8.60;99.90
16578;DHT22;8401;52.528;13.340;2023-01-10T12:00:53;8.70;99.90
16578;DHT22;8401;52.528;13.340;2023-01-10T12:03:24;8.70;99.90
16578;DHT22;8401;52.528;13.340;2023-01-10T12:06:08;8.60;99.90
16578;DHT22;8401;52.528;13.340;2023-01-10T12:08:38;8.60;99.90
16578;DHT22;8401;52.528;13.340;2023-01-10T12:13:58;8.70;99.90
16578;DHT22;8401;52.528;13.340;2023-01-10T12:16:32;8.70;99.90
16578;DHT22;8401;52.528;13.340;2023-01-10T12:19:00;8.60;99.90
16578;DHT22;8401;52.528;13.340;2023-01-10T12:21:41;8.70;99.90
16578;DHT22;8401;52.528;13.340;2023-01-10T12:26:49;8.80;99.90
16578;DHT22;8401;52.528;13.340;2023-01-10T12:29:22;8.80;99.90
16578;DHT22;8401;52.528;13.340;2023-01-10T12:31:52;8.60;99.90
16578;DHT22;8401;52.528;13.340;2023-01-10T12:34:23;8.60;99.90
16578;DHT22;8401;52.528;13.340;2023-01-10T12:39:45;8.50;99.90
16578;DHT22;8401;52.528;13.340;2023-01-10T12:42:19;8.50;99.90
16578;DHT22;8401;52.528;13.340;2023-01-10T12:45:22;8.60;99.90
16578;DHT22;8401;52.528;13.340;2023-01-10T12:50:33;8.70;99.90
16578;DHT22;8401;52.528;13.340;2023-01-10T12:55:41;8.70;99.90
16578;DHT22;8401;52.528;13.340;2023-01-10T12:58:21;8.60;99.90
16578;DHT22;8401;52.528;13.340;2023-01-10T13:00:54;8.70;99.90
16578;DHT22;8401;52.528;13.340;2023-01-10T13:03:28;8.60;99.90
16578;DHT22;8401;52.528;13.340;2023-01-10T13:05:58;8.70;99.90
16578;DHT22;8401;52.528;13.340;2023-01-10T13:08:31;8.60;99.90
16578;DHT22;8401;52.528;13.340;2023-01-10T13:10:58;8.70;99.90
16578;DHT22;8401;52.528;13.340;2023-01-10T13:13:42;8.70;99.90
16578;DHT22;8401;52.528;13.340;2023-01-10T13:21:33;8.60;99.90
16578;DHT22;8401;52.528;13.340;2023-01-10T13:26:47;8.30;99.90
16578;DHT22;8401;52.528;13.340;2023-01-10T13:29:36;8.30;99.90
16578;DHT22;8401;52.528;13.340;2023-01-10T13:32:34;8.30;99.90
16578;DHT22;8401;52.528;13.340;2023-01-10T13:35:20;8.40;99.90
16578;DHT22;8401;52.528;13.340;2023-01-10T13:37:53;8.30;99.90
16578;DHT22;8401;52.528;13.340;2023-01-10T13:40:25;8.30;99.90
16578;DHT22;8401;52.528;13.340;2023-01-10T13:43:24;8.30;99.90
16578;DHT22;8401;52.528;13.340;2023-01-10T13:48:40;8.30;99.90
16578;DHT22;8401;52.528;13.340;2023-01-10T13:51:21;8.30;99.90
16578;DHT22;8401;52.528;13.340;2023-01-10T13:56:35;8.20;99.90
16578;DHT22;8401;52.528;13.340;2023-01-10T13:59:02;8.20;99.90
16578;DHT22;8401;52.528;13.340;2023-01-10T14:01:52;8.20;99.90
16578;DHT22;8401;52.528;13.340;2023-01-10T14:04:38;8.20;99.90
16578;DHT22;8401;52.528;13.340;2023-01-10T14:07:46;8.30;99.90
16578;DHT22;8401;52.528;13.340;2023-01-10T14:10:21;8.40;99.90
16578;DHT22;8401;52.528;13.340;2023-01-10T14:13:03;8.40;99.90
16578;DHT22;8401;52.528;13.340;2023-01-10T14:15:38;8.30;99.90
16578;DHT22;8401;52.528;13.340;2023-01-10T14:18:30;8.20;99.90
16578;DHT22;8401;52.528;13.340;2023-01-10T14:21:06;8.20;99.90
16578;DHT22;8401;52.528;13.340;2023-01-10T14:23:40;8.20;99.90
16578;DHT22;8401;52.528;13.340;2023-01-10T14:26:18;8.10;99.90
16578;DHT22;8401;52.528;13.340;2023-01-10T14:28:46;8.10;99.90
16578;DHT22;8401;52.528;13.340;2023-01-10T14:31:24;8.10;99.90
16578;DHT22;8401;52.528;13.340;2023-01-10T14:33:51;8.00;99.90
16578;DHT22;8401;52.528;13.340;2023-01-10T14:36:30;8.00;99.90
16578;DHT22;8401;52.528;13.340;2023-01-10T14:39:04;7.90;99.90
16578;DHT22;8401;52.528;13.340;2023-01-10T14:41:42;8.00;99.90
16578;DHT22;8401;52.528;13.340;2023-01-10T14:44:16;7.80;99.90
16578;DHT22;8401;52.528;13.340;2023-01-10T14:46:45;7.80;99.90
16578;DHT22;8401;52.528;13.340;2023-01-10T14:49:23;7.70;99.90
16578;DHT22;8401;52.528;13.340;2023-01-10T14:51:49;7.80;99.90
16578;DHT22;8401;52.528;13.340;2023-01-10T14:54:19;7.70;99.90
16578;DHT22;8401;52.528;13.340;2023-01-10T14:56:50;7.80;99.90
16578;DHT22;8401;52.528;13.340;2023-01-10T14:59:30;7.80;99.90
16578;DHT22;8401;52.528;13.340;2023-01-10T15:01:57;7.80;99.90
16578;DHT22;8401;52.528;13.340;2023-01-10T15:04:27;7.80;99.90
16578;DHT22;8401;52.528;13.340;2023-01-10T15:06:59;7.80;99.90
16578;DHT22;8401;52.528;13.340;2023-01-10T15:09:29;7.80;99.90
16578;DHT22;8401;52.528;13.340;2023-01-10T15:11:58;7.80;99.90
16578;DHT22;8401;52.528;13.340;2023-01-10T15:14:25;7.80;99.90
16578;DHT22;8401;52.528;13.340;2023-01-10T15:16:56;7.80;99.90
16578;DHT22;8401;52.528;13.340;2023-01-10T15:19:24;7.70;99.90
16578;DHT22;8401;52.528;13.340;2023-01-10T15:21:51;7.70;99.90
16578;DHT22;8401;52.528;13.340;2023-01-10T15:26:51;7.70;99.90
16578;DHT22;8401;52.528;13.340;2023-01-10T15:29:23;7.70;99.90
16578;DHT22;8401;52.528;13.340;2023-01-10T15:31:49;7.70;99.90
16578;DHT22;8401;52.528;13.340;2023-01-10T15:34:18;7.70;99.90
16578;DHT22;8401;52.528;13.340;2023-01-10T15:36:50;7.80;99.90
16578;DHT22;8401;52.528;13.340;2023-01-10T15:39:19;7.80;99.90
16578;DHT22;8401;52.528;13.340;2023-01-10T15:41:46;7.80;99.90
16578;DHT22;8401;52.528;13.340;2023-01-10T15:44:35;7.70;99.90
16578;DHT22;8401;52.528;13.340;2023-01-10T15:47:01;7.60;99.90
16578;DHT22;8401;52.528;13.340;2023-01-10T15:49:26;7.60;99.90
16578;DHT22;8401;52.528;13.340;2023-01-10T15:51:53;7.50;99.90
16578;DHT22;8401;52.528;13.340;2023-01-10T15:56:49;7.50;99.90
16578;DHT22;8401;52.528;13.340;2023-01-10T15:59:40;7.60;99.90
16578;DHT22;8401;52.528;13.340;2023-01-10T16:02:30;7.60;99.90
16578;DHT22;8401;52.528;13.340;2023-01-10T16:04:58;7.70;99.90
16578;DHT22;8401;52.528;13.340;2023-01-10T16:07:32;7.70;99.90
16578;DHT22;8401;52.528;13.340;2023-01-10T16:10:23;7.70;99.90
16578;DHT22;8401;52.528;13.340;2023-01-10T16:12:50;7.80;99.90
16578;DHT22;8401;52.528;13.340;2023-01-10T16:15:36;7.70;99.90
16578;DHT22;8401;52.528;13.340;2023-01-10T16:18:04;7.80;99.90
16578;DHT22;8401;52.528;13.340;2023-01-10T16:20:40;7.80;99.90
16578;DHT22;8401;52.528;13.340;2023-01-10T16:23:15;7.70;99.90
16578;DHT22;8401;52.528;13.340;2023-01-10T16:25:44;7.70;99.90
16578;DHT22;8401;52.528;13.340;2023-01-10T16:28:12;7.80;99.90
16578;DHT22;8401;52.528;13.340;2023-01-10T16:30:38;7.90;99.90
16578;DHT22;8401;52.528;13.340;2023-01-10T16:33:16;7.80;99.90
16578;DHT22;8401;52.528;13.340;2023-01-10T16:35:46;7.80;99.90
16578;DHT22;8401;52.528;13.340;2023-01-10T16:38:12;7.80;99.90
16578;DHT22;8401;52.528;13.340;2023-01-10T16:40:43;7.70;99.90
16578;DHT22;8401;52.528;13.340;2023-01-10T16:43:11;7.80;99.90
16578;DHT22;8401;52.528;13.340;2023-01-10T16:45:44;7.80;99.90
16578;DHT22;8401;52.528;13.340;2023-01-10T16:48:10;7.90;99.90
16578;DHT22;8401;52.528;13.340;2023-01-10T16:50:37;7.70;99.90
16578;DHT22;8401;52.528;13.340;2023-01-10T16:53:02;7.80;99.90
16578;DHT22;8401;52.528;13.340;2023-01-10T16:55:39;7.70;99.90
16578;DHT22;8401;52.528;13.340;2023-01-10T16:58:06;7.80;99.90
16578;DHT22;8401;52.528;13.340;2023-01-10T17:00:32;7.80;99.90
16578;DHT22;8401;52.528;13.340;2023-01-10T17:03:00;7.80;99.90
16578;DHT22;8401;52.528;13.340;2023-01-10T17:05:26;7.70;99.90
16578;DHT22;8401;52.528;13.340;2023-01-10T17:07:51;7.90;99.90
16578;DHT22;8401;52.528;13.340;2023-01-10T17:10:17;7.80;99.90
16578;DHT22;8401;52.528;13.340;2023-01-10T17:12:43;7.80;99.90
16578;DHT22;8401;52.528;13.340;2023-01-10T17:15:11;7.80;99.90
16578;DHT22;8401;52.528;13.340;2023-01-10T17:17:37;7.70;99.90
16578;DHT22;8401;52.528;13.340;2023-01-10T17:20:03;7.80;99.90
16578;DHT22;8401;52.528;13.340;2023-01-10T17:22:31;7.70;99.90
16578;DHT22;8401;52.528;13.340;2023-01-10T17:24:56;7.60;99.90
16578;DHT22;8401;52.528;13.340;2023-01-10T17:27:22;7.50;99.90
16578;DHT22;8401;52.528;13.340;2023-01-10T17:29:47;7.60;99.90
16578;DHT22;8401;52.528;13.340;2023-01-10T17:32:13;7.80;99.90
16578;DHT22;8401;52.528;13.340;2023-01-10T17:34:39;7.80;99.90
16578;DHT22;8401;52.528;13.340;2023-01-10T17:37:04;7.60;99.90
16578;DHT22;8401;52.528;13.340;2023-01-10T17:39:30;7.70;99.90
16578;DHT22;8401;52.528;13.340;2023-01-10T17:41:56;7.60;99.90
16578;DHT22;8401;52.528;13.340;2023-01-10T17:44:22;7.60;99.90
16578;DHT22;8401;52.528;13.340;2023-01-10T17:46:48;7.60;99.90
16578;DHT22;8401;52.528;13.340;2023-01-10T17:49:13;7.60;99.90
16578;DHT22;8401;52.528;13.340;2023-01-10T17:51:39;7.40;99.90
16578;DHT22;8401;52.528;13.340;2023-01-10T17:54:05;7.50;99.90
16578;DHT22;8401;52.528;13.340;2023-01-10T17:56:30;7.50;99.90